Terminal Aerodrome Forecast
Issued by NWS Key West, FL

Home | Current Version | Previous Version | Text Only | Print | Product List | Glossary On
Versions: 1 2 3 4 5 6 7 8 9 10 11 12 13 14 15 16 17 18 19 20 21 22 23 24
000
FTUS42 KKEY 201724
TAFEYW
TAF
KEYW 201724Z 2018/2118 10011KT P6SM VCSH SCT025 BKN050
     FM210000 11013G20KT P6SM SCT025 BKN040
     FM211500 11013KT P6SM SCT025=

USA.gov is the U.S. government's official web portal to all federal, state and local government web resources and services.